createdAt,value
2018-07-24T00:00:17.186Z,20.94
2018-07-24T00:05:42.700Z,21.01
2018-07-24T00:08:12.362Z,21.00
2018-07-24T00:10:42.232Z,20.95
2018-07-24T00:13:11.170Z,20.89
2018-07-24T00:15:40.328Z,20.92
2018-07-24T00:18:09.827Z,20.63
2018-07-24T00:20:39.072Z,20.72
2018-07-24T00:23:08.184Z,20.72
2018-07-24T00:25:37.132Z,20.65
2018-07-24T00:28:06.458Z,20.68
2018-07-24T00:30:35.547Z,20.76
2018-07-24T00:33:04.523Z,20.81
2018-07-24T00:35:33.734Z,20.86
2018-07-24T00:38:03.055Z,20.71
2018-07-24T00:40:32.221Z,20.76
2018-07-24T00:43:01.264Z,20.68
2018-07-24T00:45:30.417Z,20.54
2018-07-24T00:48:00.798Z,20.68
2018-07-24T00:50:30.070Z,20.48
2018-07-24T00:52:59.310Z,20.44
2018-07-24T00:55:28.463Z,20.37
2018-07-24T00:57:57.778Z,20.33
2018-07-24T01:00:27.170Z,20.33
2018-07-24T01:02:56.114Z,20.27
2018-07-24T01:05:25.326Z,20.44
2018-07-24T01:07:54.298Z,20.28
2018-07-24T01:10:23.528Z,20.42
2018-07-24T01:12:53.235Z,20.46
2018-07-24T01:15:22.350Z,20.26
2018-07-24T01:17:51.460Z,20.14
2018-07-24T01:20:21.064Z,19.87
2018-07-24T01:22:50.135Z,20.15
2018-07-24T01:25:19.096Z,20.06
2018-07-24T01:27:48.335Z,20.12
2018-07-24T01:30:17.534Z,20.02
2018-07-24T01:32:46.587Z,20.11
2018-07-24T01:35:15.736Z,20.02
2018-07-24T01:37:44.811Z,20.00
2018-07-24T01:40:14.248Z,19.95
2018-07-24T01:42:43.513Z,19.94
2018-07-24T01:45:12.748Z,19.91
2018-07-24T01:47:41.688Z,19.82
2018-07-24T01:50:10.709Z,19.89
2018-07-24T01:52:39.637Z,19.77
2018-07-24T01:55:09.367Z,19.63
2018-07-24T01:57:38.658Z,19.75
2018-07-24T02:00:08.339Z,19.67
2018-07-24T02:02:37.692Z,19.75
2018-07-24T02:05:07.871Z,19.61
2018-07-24T02:07:36.916Z,19.55
2018-07-24T02:10:08.006Z,19.57
2018-07-24T02:12:37.501Z,19.48
2018-07-24T02:15:08.446Z,19.41
2018-07-24T02:17:38.174Z,19.50
2018-07-24T02:20:08.663Z,19.49
2018-07-24T02:22:37.741Z,19.54
2018-07-24T02:25:08.684Z,19.55
2018-07-24T02:27:38.091Z,19.54
2018-07-24T02:30:08.662Z,19.43
2018-07-24T02:32:37.919Z,19.40
2018-07-24T02:35:08.130Z,19.31
2018-07-24T02:37:37.570Z,19.47
2018-07-24T02:40:07.790Z,19.56
2018-07-24T02:42:37.227Z,19.46
2018-07-24T02:45:10.082Z,19.39
2018-07-24T02:47:39.361Z,19.20
2018-07-24T02:50:08.704Z,19.06
2018-07-24T02:52:37.967Z,19.03
2018-07-24T02:55:08.090Z,18.96
2018-07-24T02:57:37.023Z,19.13
2018-07-24T03:00:08.027Z,19.24
2018-07-24T03:02:38.107Z,19.25
2018-07-24T03:05:08.322Z,19.20
2018-07-24T03:07:37.978Z,19.18
2018-07-24T03:10:08.066Z,19.26
2018-07-24T03:12:37.136Z,19.23
2018-07-24T03:15:07.926Z,19.25
2018-07-24T03:17:37.030Z,19.15
2018-07-24T03:20:07.041Z,19.11
2018-07-24T03:22:35.967Z,19.00
2018-07-24T03:25:07.138Z,18.96
2018-07-24T03:27:36.142Z,18.99
2018-07-24T03:30:08.745Z,19.02
2018-07-24T03:32:37.831Z,18.90
2018-07-24T03:35:07.141Z,18.83
2018-07-24T03:37:36.192Z,18.79
2018-07-24T03:40:08.743Z,18.75
2018-07-24T03:42:44.289Z,18.74
2018-07-24T03:45:13.255Z,18.59
2018-07-24T03:47:42.319Z,18.61
2018-07-24T03:50:11.316Z,18.56
2018-07-24T03:52:40.524Z,18.53
2018-07-24T03:55:10.150Z,18.41
2018-07-24T03:57:39.688Z,18.38
2018-07-24T04:00:08.915Z,18.55
2018-07-24T04:02:38.118Z,18.73
2018-07-24T04:05:07.071Z,18.67
2018-07-24T04:07:36.353Z,18.63
2018-07-24T04:10:07.747Z,18.51
2018-07-24T04:12:36.852Z,18.48
2018-07-24T04:15:07.303Z,18.57
2018-07-24T04:17:36.658Z,18.54
2018-07-24T04:20:08.328Z,18.70
2018-07-24T04:22:37.443Z,18.67
2018-07-24T04:25:07.918Z,18.64
2018-07-24T04:27:37.087Z,18.67
2018-07-24T04:30:07.860Z,18.82
2018-07-24T04:32:37.137Z,18.94
2018-07-24T04:35:07.951Z,19.04
2018-07-24T04:37:37.047Z,19.00
2018-07-24T04:40:07.594Z,19.05
2018-07-24T04:42:36.783Z,19.07
2018-07-24T04:45:08.082Z,18.87
2018-07-24T04:47:37.289Z,18.85
2018-07-24T04:50:07.266Z,18.76
2018-07-24T04:52:36.529Z,18.91
2018-07-24T04:55:07.341Z,19.03
2018-07-24T04:57:36.442Z,19.31
2018-07-24T05:00:07.798Z,19.68
2018-07-24T05:02:36.903Z,19.87
2018-07-24T05:05:07.647Z,20.08
2018-07-24T05:07:36.956Z,20.32
2018-07-24T05:10:07.791Z,20.70
2018-07-24T05:12:36.854Z,20.57
2018-07-24T05:15:07.232Z,20.58
2018-07-24T05:17:36.212Z,20.43
2018-07-24T05:20:09.854Z,20.42
2018-07-24T05:22:39.165Z,20.14
2018-07-24T05:25:09.388Z,20.03
2018-07-24T05:27:38.464Z,20.00
2018-07-24T05:30:08.135Z,19.85
2018-07-24T05:32:37.084Z,19.75
2018-07-24T05:35:08.091Z,19.94
2018-07-24T05:37:37.305Z,20.03
2018-07-24T05:40:07.166Z,20.01
2018-07-24T05:42:36.315Z,20.18
2018-07-24T05:45:07.443Z,20.22
2018-07-24T05:47:36.388Z,20.11
2018-07-24T05:50:08.225Z,20.13
2018-07-24T05:52:37.179Z,20.31
2018-07-24T05:55:07.288Z,20.40
2018-07-24T05:57:36.327Z,20.42
2018-07-24T06:00:07.691Z,20.38
2018-07-24T06:02:36.759Z,20.32
2018-07-24T06:05:07.261Z,20.55
2018-07-24T06:07:36.502Z,20.58
2018-07-24T06:10:07.264Z,20.83
2018-07-24T06:12:36.529Z,20.81
2018-07-24T06:15:08.652Z,20.85
2018-07-24T06:17:37.827Z,21.25
2018-07-24T06:20:09.178Z,21.33
2018-07-24T06:22:38.347Z,21.55
2018-07-24T06:25:08.500Z,21.68
2018-07-24T06:27:37.750Z,21.85
2018-07-24T06:30:07.424Z,22.10
2018-07-24T06:32:36.346Z,22.37
2018-07-24T06:35:09.313Z,22.01
2018-07-24T06:37:38.227Z,21.70
2018-07-24T06:40:07.500Z,21.78
2018-07-24T06:42:37.126Z,22.15
2018-07-24T06:45:07.494Z,22.41
2018-07-24T06:47:36.576Z,22.44
2018-07-24T06:50:07.509Z,22.63
2018-07-24T06:52:36.479Z,22.68
2018-07-24T06:55:09.310Z,22.88
2018-07-24T06:57:38.571Z,22.91
2018-07-24T07:00:08.648Z,23.11
2018-07-24T07:02:37.787Z,22.76
2018-07-24T07:05:07.578Z,22.87
2018-07-24T07:07:37.078Z,23.20
2018-07-24T07:10:07.121Z,23.82
2018-07-24T07:12:36.079Z,25.68
2018-07-24T07:15:08.021Z,26.51
2018-07-24T07:17:37.290Z,27.74
2018-07-24T07:20:07.932Z,28.82
2018-07-24T07:22:37.235Z,27.88
2018-07-24T07:25:07.370Z,28.08
2018-07-24T07:27:36.322Z,27.73
2018-07-24T07:30:07.680Z,28.57
2018-07-24T07:32:36.999Z,29.57
2018-07-24T07:35:07.508Z,29.81
2018-07-24T07:37:36.439Z,29.53
2018-07-24T07:40:09.146Z,30.19
2018-07-24T07:42:38.091Z,31.05
2018-07-24T07:45:07.180Z,28.00
2018-07-24T07:47:36.269Z,27.13
2018-07-24T07:50:07.307Z,28.78
2018-07-24T07:52:36.326Z,27.18
2018-07-24T07:55:07.232Z,26.50
2018-07-24T07:57:36.444Z,26.90
2018-07-24T08:00:07.898Z,27.68
2018-07-24T08:02:37.120Z,27.73
2018-07-24T08:05:07.399Z,27.91
2018-07-24T08:07:36.498Z,28.17
2018-07-24T08:10:08.079Z,28.28
2018-07-24T08:12:37.052Z,27.92
2018-07-24T08:15:08.020Z,27.82
2018-07-24T08:17:37.110Z,28.03
2018-07-24T08:20:07.184Z,27.38
2018-07-24T08:22:36.698Z,28.14
2018-07-24T08:25:07.745Z,28.41
2018-07-24T08:27:36.860Z,28.53
2018-07-24T08:30:07.603Z,28.55
2018-07-24T08:32:36.630Z,29.05
2018-07-24T08:35:07.858Z,27.97
2018-07-24T08:37:37.107Z,29.43
2018-07-24T08:40:06.903Z,30.39
2018-07-24T08:42:36.954Z,31.68
2018-07-24T08:45:08.612Z,32.80
2018-07-24T08:47:37.598Z,34.00
2018-07-24T08:50:07.078Z,34.73
2018-07-24T08:52:36.318Z,34.64
2018-07-24T08:55:09.123Z,33.55
2018-07-24T08:57:38.163Z,34.33
2018-07-24T09:00:07.355Z,32.39
2018-07-24T09:02:36.448Z,32.43
2018-07-24T09:05:08.843Z,32.90
2018-07-24T09:07:37.802Z,31.94
2018-07-24T09:10:07.111Z,31.95
2018-07-24T09:12:36.132Z,33.29
2018-07-24T09:15:08.727Z,34.77
2018-07-24T09:17:37.962Z,34.00
2018-07-24T09:20:07.650Z,33.96
2018-07-24T09:22:37.027Z,35.30
2018-07-24T09:25:08.048Z,35.29
2018-07-24T09:27:36.980Z,35.94
2018-07-24T09:30:08.103Z,36.69
2018-07-24T09:32:37.430Z,37.17
2018-07-24T09:35:07.201Z,34.74
2018-07-24T09:37:36.634Z,34.65
2018-07-24T09:40:08.991Z,32.86
2018-07-24T09:42:38.026Z,32.49
2018-07-24T09:45:07.804Z,31.07
2018-07-24T09:47:36.785Z,33.32
2018-07-24T09:50:07.696Z,32.41
2018-07-24T09:52:36.991Z,32.26
2018-07-24T09:55:08.380Z,33.22
2018-07-24T09:57:37.671Z,35.10
2018-07-24T10:00:08.384Z,36.08
2018-07-24T10:02:38.244Z,34.90
2018-07-24T10:05:07.764Z,35.77
2018-07-24T10:07:37.448Z,37.22
2018-07-24T10:10:07.915Z,37.53
2018-07-24T10:12:36.920Z,37.57
2018-07-24T10:15:08.103Z,36.48
2018-07-24T10:17:37.999Z,33.65
2018-07-24T10:20:07.525Z,33.72
2018-07-24T10:22:36.782Z,36.08
2018-07-24T10:25:07.379Z,32.58
2018-07-24T10:27:36.614Z,32.64
2018-07-24T10:30:07.108Z,36.18
2018-07-24T10:32:36.042Z,33.34
2018-07-24T10:35:08.643Z,35.45
2018-07-24T10:37:37.730Z,32.40
2018-07-24T10:40:08.017Z,34.27
2018-07-24T10:42:37.271Z,35.89
2018-07-24T10:45:08.177Z,33.78
2018-07-24T10:47:37.263Z,35.42
2018-07-24T10:50:07.726Z,37.09
2018-07-24T10:52:36.984Z,37.59
2018-07-24T10:55:07.758Z,35.36
2018-07-24T10:57:37.227Z,35.65
2018-07-24T11:00:07.802Z,33.33
2018-07-24T11:02:37.098Z,35.34
2018-07-24T11:05:07.924Z,37.01
2018-07-24T11:07:37.019Z,37.28
2018-07-24T11:10:09.308Z,37.37
2018-07-24T11:12:38.580Z,35.49
2018-07-24T11:15:07.785Z,35.74
2018-07-24T11:17:37.120Z,35.22
2018-07-24T11:20:07.820Z,35.54
2018-07-24T11:22:37.363Z,35.82
2018-07-24T11:25:07.526Z,36.11
2018-07-24T11:27:36.668Z,35.96
2018-07-24T11:30:07.819Z,35.08
2018-07-24T11:32:36.954Z,35.10
2018-07-24T11:35:08.578Z,34.70
2018-07-24T11:37:37.832Z,34.31
2018-07-24T11:40:08.237Z,33.84
2018-07-24T11:42:37.330Z,33.95
2018-07-24T11:45:08.620Z,33.35
2018-07-24T11:47:37.663Z,33.30
2018-07-24T11:50:07.418Z,33.15
2018-07-24T11:52:36.674Z,33.20
2018-07-24T11:55:07.918Z,33.35
2018-07-24T11:57:38.259Z,33.16
2018-07-24T12:00:11.709Z,33.26
2018-07-24T12:02:40.840Z,33.13
2018-07-24T12:05:09.982Z,32.85
2018-07-24T12:07:38.997Z,33.03
2018-07-24T12:10:08.695Z,33.19
2018-07-24T12:12:37.674Z,32.92
2018-07-24T12:15:08.432Z,32.35
2018-07-24T12:17:37.977Z,32.41
2018-07-24T12:20:07.356Z,32.68
2018-07-24T12:22:36.698Z,32.81
2018-07-24T12:25:07.875Z,32.35
2018-07-24T12:27:37.470Z,32.91
2018-07-24T12:30:08.772Z,32.79
2018-07-24T12:32:38.002Z,33.07
2018-07-24T12:35:07.411Z,33.48
2018-07-24T12:37:36.585Z,33.53
2018-07-24T12:40:07.837Z,33.30
2018-07-24T12:48:44.175Z,31.89
2018-07-24T12:51:13.522Z,32.05
2018-07-24T12:53:42.848Z,32.38
2018-07-24T12:56:12.088Z,32.65
